Tuesday, December 18, 2018, 4:18 PM EST
Back to Local

KJFK, Kennedy International Airport

Location: Rosedale, NY, United States Lat: 40.633
Local Time: 4:18 PM EST (21:18 GMT) Lon: -73.767
Time Zone: US/Eastern Elev: 13 ft

Show me the last for .
Show Coded

Time T Td Feel RH Dir Speed Gust Alt SLP Vis Weather Sky Remarks
2018-12-18 15:51 35 15 23 43 280° 18 25 30.09 30.09 10 FEW055 FEW250 None
2018-12-18 14:51 36 14 24 39 310° 16 23 30.06 30.06 10 FEW055 FEW250 Peak wind: 31 mph (27 kts) from 310° at 04 min
2018-12-18 13:51 36 13 25 38 300° 20 - 30.05 30.05 10 FEW055 FEW250 Peak wind: 29 mph (26 kts) from 330° at 21 min
2018-12-18 12:51 36 14 23 39 310° 20 28 30.04 30.04 10 FEW055 6-hr Min Temp (1pm): 30.9°F
6-hr Max Temp (1pm): 36.0°F
2018-12-18 11:51 35 14 24 41 330° 21 - 30.04 30.04 10 FEW050 Peak wind: 31 mph (27 kts) from 340° at 29 min
2018-12-18 10:51 34 14 20 43 330° 26 33 30.04 30.04 10 FEW050 Peak wind: 35 mph (31 kts) from 330° at 16 min
2018-12-18 09:51 33 15 19 47 330° 26 32 30.04 30.04 10 SCT047 Peak wind: 33 mph (29 kts) from 340° at 14 min
2018-12-18 08:51 32 15 17 49 330° 22 32 30.01 30.01 10 SCT043 Peak wind: 40 mph (35 kts) from 330° at 56 min
2018-12-18 07:51 32 16 17 51 330° 24 32 29.98 29.97 10 FEW055 Peak wind: 47 mph (41 kts) from 320° at 55 min
Pressure rising rapidly
2018-12-18 06:51 33 15 17 47 310° 28 41 29.94 29.93 10 FEW050 Peak wind: 42 mph (37 kts) from 320° at 02 min
6-hr Min Temp (7am): 33.1°F
6-hr Max Temp (7am): 39.9°F
2018-12-18 05:51 33 16 17 48 320° 29 43 29.91 29.91 10 FEW050 Peak wind: 50 mph (44 kts) from 320° at 41 min
2018-12-18 04:51 34 17 20 49 330° 22 32 29.89 29.89 10 BKN050 Peak wind: 37 mph (33 kts) from 330° at 34 min
2018-12-18 03:51 36 18 21 47 310° 25 39 29.86 29.85 10 BKN050 Peak wind: 41 mph (36 kts) from 330° at 04 min
2018-12-18 02:51 37 19 23 47 310° 29 36 29.84 29.83 10 BKN050 Peak wind: 35 mph (31 kts) from 310° at 46 min
2018-12-18 01:51 38 20 25 47 310° 26 37 29.81 29.81 10 SCT050 Peak wind: 47 mph (41 kts) from 310° at 15 min
2018-12-18 00:51 40 25 28 54 300° 24 35 29.78 29.77 10 BKN050 Peak wind: 35 mph (31 kts) from 310° at 02 min
6-hr Min Temp (1am): 39.9°F
6-hr Max Temp (1am): 44.1°F
2018-12-17 23:51 41 24 29 50 300° 25 36 29.78 29.77 10 BKN050 Peak wind: 36 mph (32 kts) from 300° at 36 min
24-hr Min Temp (12am): 37.9°F
24-hr Max Temp (12am): 48.9°F
2018-12-17 22:51 41 25 30 52 300° 20 29 29.78 29.78 10 BKN050 Peak wind: 37 mph (33 kts) from 290° at 30 min
2018-12-17 21:51 42 26 31 52 290° 23 32 29.79 29.78 10 BKN049 Peak wind: 34 mph (30 kts) from 310° at 53 min
2018-12-17 20:51 43 24 31 46 310° 26 39 29.79 29.79 10 BKN060 Peak wind: 39 mph (34 kts) from 300° at 48 min
2018-12-17 19:51 43 25 33 48 300° 21 29 29.79 29.78 10 SCT050 OVC060 Peak wind: 42 mph (37 kts) from 310° at 29 min
2018-12-17 18:51 43 26 32 50 300° 20 36 29.78 29.78 10 OVC050 Peak wind: 44 mph (39 kts) from 310° at 37 min
6-hr Min Temp (7pm): 43.0°F
6-hr Max Temp (7pm): 46.9°F
2018-12-17 17:51 44 27 34 50 300° 23 31 29.76 29.75 10 OVC048 Peak wind: 41 mph (36 kts) from 290° at 14 min
2018-12-17 16:51 44 26 34 48 310° 22 30 29.74 29.74 10 OVC050 Peak wind: 40 mph (35 kts) from 300° at 52 min

Support USWX by starting your Amazon purchase here.